createdAt,value
2023-02-23T00:01:57.618Z,99.60
2023-02-23T00:04:25.302Z,99.60
2023-02-23T00:06:53.498Z,99.60
2023-02-23T00:09:28.077Z,99.60
2023-02-23T00:12:01.213Z,99.60
2023-02-23T00:14:31.174Z,99.50
2023-02-23T00:17:01.343Z,99.50
2023-02-23T00:19:28.293Z,99.50
2023-02-23T00:21:58.880Z,99.50
2023-02-23T00:24:27.105Z,99.50
2023-02-23T00:26:57.362Z,99.50
2023-02-23T00:29:25.217Z,99.40
2023-02-23T00:31:56.190Z,99.50
2023-02-23T00:34:24.048Z,99.50
2023-02-23T00:36:56.630Z,99.50
2023-02-23T00:39:29.435Z,99.50
2023-02-23T00:42:02.513Z,99.50
2023-02-23T00:44:29.786Z,99.50
2023-02-23T00:46:56.760Z,99.50
2023-02-23T00:49:23.919Z,99.50
2023-02-23T00:51:52.326Z,99.50
2023-02-23T00:54:21.459Z,99.40
2023-02-23T00:56:49.098Z,99.40
2023-02-23T00:59:19.166Z,99.40
2023-02-23T01:01:46.466Z,99.40
2023-02-23T01:04:14.064Z,99.40
2023-02-23T01:06:42.684Z,99.40
2023-02-23T01:09:13.983Z,99.30
2023-02-23T01:11:41.784Z,99.30
2023-02-23T01:14:10.742Z,99.30
2023-02-23T01:16:40.470Z,99.40
2023-02-23T01:19:08.273Z,99.40
2023-02-23T01:21:38.729Z,99.40
2023-02-23T01:24:08.853Z,99.40
2023-02-23T01:26:38.369Z,99.30
2023-02-23T01:29:08.922Z,99.40
2023-02-23T01:31:38.660Z,99.30
2023-02-23T01:34:06.705Z,99.30
2023-02-23T01:36:36.703Z,99.30
2023-02-23T01:39:06.831Z,99.30
2023-02-23T01:41:36.327Z,99.30
2023-02-23T01:44:06.314Z,99.30
2023-02-23T01:46:37.122Z,99.30
2023-02-23T01:49:06.901Z,99.30
2023-02-23T01:51:44.751Z,99.30
2023-02-23T01:54:17.428Z,99.30
2023-02-23T01:56:49.565Z,99.30
2023-02-23T01:59:17.984Z,99.40
2023-02-23T02:01:45.606Z,99.40
2023-02-23T02:04:16.949Z,99.40
2023-02-23T02:06:47.124Z,99.40
2023-02-23T02:09:17.715Z,99.40
2023-02-23T02:11:49.298Z,99.40
2023-02-23T02:14:21.060Z,99.40
2023-02-23T02:17:10.298Z,99.40
2023-02-23T02:20:06.442Z,99.40
2023-02-23T02:22:48.260Z,99.40
2023-02-23T02:25:36.855Z,99.40
2023-02-23T02:28:36.780Z,99.40
2023-02-23T02:31:30.273Z,99.30
2023-02-23T02:34:18.895Z,99.40
2023-02-23T02:37:11.764Z,99.30
2023-02-23T02:39:47.810Z,99.30
2023-02-23T02:42:40.053Z,99.40
2023-02-23T02:45:28.351Z,99.30
2023-02-23T02:48:05.923Z,99.40
2023-02-23T02:51:05.535Z,99.40
2023-02-23T02:54:07.021Z,99.40
2023-02-23T02:56:40.436Z,99.40
2023-02-23T02:59:37.769Z,99.50
2023-02-23T03:02:25.178Z,99.40
2023-02-23T03:05:11.083Z,99.40
2023-02-23T03:08:02.764Z,99.40
2023-02-23T03:11:16.775Z,99.40
2023-02-23T03:14:33.339Z,99.40
2023-02-23T03:17:41.947Z,99.40
2023-02-23T03:20:45.512Z,99.40
2023-02-23T03:24:04.112Z,99.40
2023-02-23T03:27:11.472Z,99.30
2023-02-23T03:30:01.678Z,99.40
2023-02-23T03:33:03.660Z,99.40
2023-02-23T03:35:57.960Z,99.40
2023-02-23T03:39:06.999Z,99.40
2023-02-23T03:41:55.182Z,99.40
2023-02-23T03:44:47.413Z,99.40
2023-02-23T03:47:37.309Z,99.40
2023-02-23T03:50:28.578Z,99.40
2023-02-23T03:53:18.608Z,99.40
2023-02-23T03:56:10.744Z,99.40
2023-02-23T03:59:00.162Z,99.40
2023-02-23T04:01:47.808Z,99.50
2023-02-23T04:04:34.512Z,99.50
2023-02-23T04:07:21.925Z,99.50
2023-02-23T04:10:08.301Z,99.50
2023-02-23T04:13:06.913Z,99.50
2023-02-23T04:15:40.384Z,99.50
2023-02-23T04:18:15.839Z,99.50
2023-02-23T04:20:43.418Z,99.50
2023-02-23T04:23:10.527Z,99.60
2023-02-23T04:25:37.587Z,99.60
2023-02-23T04:28:04.870Z,99.60
2023-02-23T04:30:32.058Z,99.60
2023-02-23T04:33:02.223Z,99.60
2023-02-23T04:35:31.482Z,99.60
2023-02-23T04:38:01.290Z,99.60
2023-02-23T04:40:29.270Z,99.60
2023-02-23T04:42:57.129Z,99.60
2023-02-23T04:45:30.780Z,99.50
2023-02-23T04:47:57.842Z,99.60
2023-02-23T04:50:24.909Z,99.60
2023-02-23T04:52:53.404Z,99.70
2023-02-23T04:55:23.049Z,99.70
2023-02-23T04:57:50.209Z,99.70
2023-02-23T05:00:18.255Z,99.70
2023-02-23T05:02:46.012Z,99.80
2023-02-23T05:05:13.135Z,99.80
2023-02-23T05:07:40.441Z,99.80
2023-02-23T05:10:08.025Z,99.80
2023-02-23T05:12:35.175Z,99.80
2023-02-23T05:15:02.229Z,99.80
2023-02-23T05:17:32.367Z,99.90
2023-02-23T05:19:59.390Z,99.90
2023-02-23T05:22:26.617Z,99.90
2023-02-23T05:24:55.283Z,99.90
2023-02-23T05:27:23.478Z,99.90
2023-02-23T05:29:50.673Z,99.90
2023-02-23T05:32:18.163Z,99.90
2023-02-23T05:34:45.240Z,99.90
2023-02-23T05:37:12.282Z,99.90
2023-02-23T05:39:39.296Z,99.90
2023-02-23T05:42:06.344Z,99.90
2023-02-23T05:44:33.631Z,99.90
2023-02-23T05:47:01.003Z,99.90
2023-02-23T05:49:28.727Z,99.90
2023-02-23T05:51:55.746Z,99.90
2023-02-23T05:54:22.734Z,99.90
2023-02-23T05:56:50.105Z,99.90
2023-02-23T05:59:17.540Z,99.90
2023-02-23T06:01:44.747Z,99.90
2023-02-23T06:04:11.863Z,99.90
2023-02-23T06:06:38.845Z,99.90
2023-02-23T06:09:05.882Z,99.90
2023-02-23T06:11:32.867Z,99.90
2023-02-23T06:14:00.205Z,99.90
2023-02-23T06:16:28.277Z,99.90
2023-02-23T06:18:55.455Z,99.90
2023-02-23T06:21:23.042Z,99.90
2023-02-23T06:23:53.493Z,99.90
2023-02-23T06:26:20.746Z,99.90
2023-02-23T06:28:47.808Z,99.90
2023-02-23T06:31:14.922Z,99.90
2023-02-23T06:33:41.972Z,99.90
2023-02-23T06:36:10.439Z,99.90
2023-02-23T06:38:38.185Z,99.90
2023-02-23T06:41:09.653Z,99.90
2023-02-23T06:43:36.744Z,99.90
2023-02-23T06:46:04.967Z,99.90
2023-02-23T06:48:34.446Z,99.90
2023-02-23T06:51:01.487Z,99.90
2023-02-23T06:53:31.571Z,99.90
2023-02-23T06:56:00.783Z,99.90
2023-02-23T06:58:29.198Z,99.90
2023-02-23T07:00:56.973Z,99.90
2023-02-23T07:03:26.845Z,99.90
2023-02-23T07:05:54.369Z,99.90
2023-02-23T07:08:21.526Z,99.90
2023-02-23T07:10:48.478Z,99.90
2023-02-23T07:13:16.479Z,99.90
2023-02-23T07:15:43.747Z,99.90
2023-02-23T07:18:10.680Z,99.90
2023-02-23T07:20:38.084Z,99.90
2023-02-23T07:23:05.079Z,99.90
2023-02-23T07:25:32.322Z,99.90
2023-02-23T07:28:02.348Z,99.90
2023-02-23T07:30:29.467Z,99.90
2023-02-23T07:32:56.549Z,99.90
2023-02-23T07:35:23.559Z,99.90
2023-02-23T07:37:50.569Z,99.90
2023-02-23T07:40:19.510Z,99.90
2023-02-23T07:42:46.508Z,99.90
2023-02-23T07:45:14.666Z,99.90
2023-02-23T07:47:41.625Z,99.90
2023-02-23T07:50:10.188Z,99.90
2023-02-23T07:52:38.938Z,99.90
2023-02-23T07:55:08.020Z,99.90
2023-02-23T07:57:35.417Z,99.90
2023-02-23T08:00:02.699Z,99.90
2023-02-23T08:02:39.824Z,99.90
2023-02-23T08:05:07.484Z,99.90
2023-02-23T08:07:34.640Z,99.90
2023-02-23T08:10:01.741Z,99.90
2023-02-23T08:12:33.350Z,99.90
2023-02-23T08:15:00.443Z,99.90
2023-02-23T08:17:29.471Z,99.90
2023-02-23T08:19:56.448Z,99.90
2023-02-23T08:22:23.507Z,99.90
2023-02-23T08:24:50.614Z,99.90
2023-02-23T08:27:17.771Z,99.90
2023-02-23T08:29:44.958Z,99.90
2023-02-23T08:32:12.206Z,99.90
2023-02-23T08:34:45.798Z,99.90
2023-02-23T08:37:12.804Z,99.90
2023-02-23T08:39:39.862Z,99.90
2023-02-23T08:42:06.942Z,99.90
2023-02-23T08:44:34.114Z,99.90
2023-02-23T08:47:04.950Z,99.90
2023-02-23T08:49:33.121Z,99.90
2023-02-23T08:52:00.252Z,99.90
2023-02-23T08:54:27.654Z,99.90
2023-02-23T08:56:58.113Z,99.90
2023-02-23T08:59:25.844Z,99.90
2023-02-23T09:01:52.900Z,99.90
2023-02-23T09:04:19.936Z,99.90
2023-02-23T09:06:50.378Z,99.90
2023-02-23T09:09:17.849Z,99.90
2023-02-23T09:11:47.366Z,99.90
2023-02-23T09:14:14.510Z,99.90
2023-02-23T09:16:41.502Z,99.90
2023-02-23T09:19:08.470Z,99.90
2023-02-23T09:21:35.467Z,99.90
2023-02-23T09:24:02.553Z,99.90
2023-02-23T09:26:29.699Z,99.90
2023-02-23T09:28:59.393Z,99.90
2023-02-23T09:31:26.480Z,99.90
2023-02-23T09:33:56.365Z,99.90
2023-02-23T09:36:25.698Z,99.90
2023-02-23T09:38:57.973Z,99.90
2023-02-23T09:41:37.076Z,99.90
2023-02-23T09:44:29.775Z,99.90
2023-02-23T09:47:02.757Z,99.90
2023-02-23T09:49:35.013Z,99.90
2023-02-23T09:52:04.782Z,99.90
2023-02-23T09:54:36.814Z,99.80
2023-02-23T09:57:11.034Z,99.80
2023-02-23T09:59:39.829Z,99.90
2023-02-23T10:02:48.218Z,99.90
2023-02-23T10:05:16.115Z,99.90
2023-02-23T10:08:09.123Z,99.90
2023-02-23T10:10:58.275Z,99.70
2023-02-23T10:13:34.369Z,99.60
2023-02-23T10:16:15.829Z,99.60
2023-02-23T10:19:08.291Z,99.40
2023-02-23T10:21:44.882Z,99.50
2023-02-23T10:24:14.670Z,99.40
2023-02-23T10:26:53.204Z,99.40
2023-02-23T10:29:26.985Z,99.50
2023-02-23T10:32:28.718Z,99.50
2023-02-23T10:34:56.818Z,99.50
2023-02-23T10:37:25.827Z,99.50
2023-02-23T10:39:53.525Z,99.60
2023-02-23T10:42:34.415Z,99.60
2023-02-23T10:45:01.594Z,99.50
2023-02-23T10:47:34.962Z,99.50
2023-02-23T10:50:03.601Z,99.50
2023-02-23T10:52:41.896Z,99.50
2023-02-23T10:55:32.097Z,99.60
2023-02-23T10:58:08.352Z,99.50
2023-02-23T11:00:40.867Z,99.50
2023-02-23T11:03:27.634Z,99.40
2023-02-23T11:05:54.986Z,99.40
2023-02-23T11:08:22.348Z,99.40
2023-02-23T11:11:04.733Z,99.30
2023-02-23T11:13:46.683Z,99.30
2023-02-23T11:16:44.526Z,99.30
2023-02-23T11:19:24.381Z,99.30
2023-02-23T11:21:52.981Z,99.20
2023-02-23T11:24:27.580Z,99.20
2023-02-23T11:26:59.435Z,99.30
2023-02-23T11:29:44.392Z,99.30
2023-02-23T11:32:14.577Z,99.20
2023-02-23T11:34:43.570Z,99.30
2023-02-23T11:37:14.508Z,99.30
2023-02-23T11:39:54.956Z,99.20
2023-02-23T11:42:35.272Z,99.20
2023-02-23T11:45:33.770Z,99.20
2023-02-23T11:48:02.802Z,99.20
2023-02-23T11:50:35.848Z,99.10
2023-02-23T11:53:13.891Z,99.00
2023-02-23T11:55:48.646Z,98.90
2023-02-23T11:58:30.756Z,98.90
2023-02-23T12:01:00.213Z,98.90
2023-02-23T12:03:29.586Z,98.80
2023-02-23T12:05:59.294Z,98.90
2023-02-23T12:08:40.536Z,98.80
2023-02-23T12:11:16.815Z,98.70
2023-02-23T12:14:23.225Z,98.80
2023-02-23T12:16:57.187Z,98.70
2023-02-23T12:19:27.173Z,98.60
2023-02-23T12:21:59.805Z,98.70
2023-02-23T12:24:34.052Z,98.60
2023-02-23T12:27:23.193Z,98.60
2023-02-23T12:30:16.192Z,98.50
2023-02-23T12:32:58.011Z,98.40
2023-02-23T12:35:43.740Z,98.50
2023-02-23T12:38:30.961Z,98.50
2023-02-23T12:41:18.591Z,98.50
2023-02-23T12:44:15.445Z,98.50
2023-02-23T12:46:49.095Z,98.60
2023-02-23T12:49:48.360Z,98.60
2023-02-23T12:52:31.998Z,98.60
2023-02-23T12:55:01.609Z,98.60
2023-02-23T12:57:45.129Z,98.70
2023-02-23T13:01:00.872Z,98.70
2023-02-23T13:03:54.221Z,98.60
2023-02-23T13:06:24.666Z,98.60
2023-02-23T13:09:42.354Z,98.70
2023-02-23T13:12:23.586Z,98.70
2023-02-23T13:15:24.086Z,98.70
2023-02-23T13:18:11.429Z,98.60
2023-02-23T13:20:54.974Z,98.60
2023-02-23T13:23:54.099Z,98.60
2023-02-23T13:26:43.823Z,98.50
2023-02-23T13:29:36.556Z,98.50
2023-02-23T13:32:05.094Z,98.40
2023-02-23T13:34:36.620Z,98.50
2023-02-23T13:37:07.170Z,98.60
2023-02-23T13:39:47.852Z,98.50
2023-02-23T13:42:21.005Z,98.60
2023-02-23T13:45:09.412Z,98.60
2023-02-23T13:47:50.248Z,98.50
2023-02-23T13:50:54.664Z,98.40
2023-02-23T13:53:41.965Z,98.40
2023-02-23T13:56:22.193Z,98.50
2023-02-23T13:58:53.415Z,98.40
2023-02-23T14:01:28.725Z,98.50
2023-02-23T14:03:59.212Z,98.30
2023-02-23T14:06:29.689Z,98.30
2023-02-23T14:09:21.516Z,98.20
2023-02-23T14:11:54.266Z,98.10
2023-02-23T14:14:30.504Z,98.10
2023-02-23T14:17:35.869Z,98.00
2023-02-23T14:20:17.859Z,98.00
2023-02-23T14:23:18.425Z,98.00
2023-02-23T14:26:08.901Z,97.90
2023-02-23T14:28:39.336Z,97.90
2023-02-23T14:31:12.478Z,98.10
2023-02-23T14:33:42.540Z,98.10
2023-02-23T14:36:21.966Z,98.10
2023-02-23T14:38:51.987Z,98.00
2023-02-23T14:41:23.325Z,98.10
2023-02-23T14:43:55.366Z,98.10
2023-02-23T14:46:25.294Z,98.20
2023-02-23T14:49:20.328Z,98.10
2023-02-23T14:52:00.445Z,98.10
2023-02-23T14:54:27.364Z,98.20
2023-02-23T14:56:59.202Z,98.20
2023-02-23T14:59:38.750Z,98.20
2023-02-23T15:02:27.849Z,98.20
2023-02-23T15:04:55.146Z,98.20
2023-02-23T15:07:32.547Z,98.20
2023-02-23T15:10:01.507Z,98.10
2023-02-23T15:12:38.082Z,98.10
2023-02-23T15:15:13.106Z,98.10
2023-02-23T15:17:44.374Z,98.30
2023-02-23T15:20:17.239Z,98.10
2023-02-23T15:22:51.961Z,98.20
2023-02-23T15:25:24.067Z,98.10
2023-02-23T15:27:52.047Z,98.20
2023-02-23T15:30:35.333Z,98.20
2023-02-23T15:33:06.130Z,98.20
2023-02-23T15:35:45.133Z,98.20
2023-02-23T15:38:41.694Z,98.20
2023-02-23T15:41:15.385Z,98.10
2023-02-23T15:43:43.536Z,98.20
2023-02-23T15:46:24.141Z,98.20
2023-02-23T15:48:54.028Z,98.20
2023-02-23T15:51:39.301Z,98.20
2023-02-23T15:54:28.775Z,98.20
2023-02-23T15:56:58.757Z,98.20
2023-02-23T15:59:35.417Z,98.20
2023-02-23T16:02:04.490Z,98.20
2023-02-23T16:04:42.662Z,98.10
2023-02-23T16:07:23.731Z,98.20
2023-02-23T16:10:06.755Z,98.20
2023-02-23T16:12:40.835Z,98.20
2023-02-23T16:15:29.719Z,98.20
2023-02-23T16:18:01.098Z,98.20
2023-02-23T16:20:41.700Z,98.30
2023-02-23T16:23:28.577Z,98.30
2023-02-23T16:26:12.501Z,98.30
2023-02-23T16:28:45.805Z,98.30
2023-02-23T16:31:23.337Z,98.30
2023-02-23T16:34:03.657Z,98.30
2023-02-23T16:36:38.684Z,98.30
2023-02-23T16:39:12.275Z,98.30
2023-02-23T16:41:39.532Z,98.40
2023-02-23T16:44:07.925Z,98.40
2023-02-23T16:47:02.433Z,98.40
2023-02-23T16:49:35.755Z,98.40
2023-02-23T16:52:25.786Z,98.40
2023-02-23T16:54:55.722Z,98.40
2023-02-23T16:57:30.763Z,98.40
2023-02-23T16:59:58.827Z,98.50
2023-02-23T17:02:26.287Z,98.50
2023-02-23T17:04:58.956Z,98.80
2023-02-23T17:07:29.269Z,98.50
2023-02-23T17:09:56.720Z,98.60
2023-02-23T17:12:24.925Z,98.60
2023-02-23T17:14:54.641Z,98.60
2023-02-23T17:17:26.165Z,98.60
2023-02-23T17:19:53.289Z,98.60
2023-02-23T17:22:20.777Z,98.80
2023-02-23T17:24:48.053Z,98.50
2023-02-23T17:27:15.211Z,98.60
2023-02-23T17:29:42.642Z,98.80
2023-02-23T17:32:09.989Z,98.80
2023-02-23T17:34:40.474Z,98.70
2023-02-23T17:37:08.634Z,98.80
2023-02-23T17:39:41.014Z,98.90
2023-02-23T17:42:10.711Z,98.90
2023-02-23T17:44:37.790Z,98.90
2023-02-23T17:47:07.495Z,99.00
2023-02-23T17:49:34.699Z,98.90
2023-02-23T17:52:05.313Z,99.00
2023-02-23T17:54:32.556Z,99.00
2023-02-23T17:56:59.626Z,99.00
2023-02-23T17:59:26.806Z,99.10
2023-02-23T18:01:54.031Z,99.00
2023-02-23T18:04:21.289Z,99.00
2023-02-23T18:06:51.414Z,99.00
2023-02-23T18:09:21.151Z,99.00
2023-02-23T18:11:48.582Z,99.00
2023-02-23T18:14:16.824Z,99.30
2023-02-23T18:16:43.993Z,99.10
2023-02-23T18:19:11.168Z,99.10
2023-02-23T18:21:42.254Z,99.10
2023-02-23T18:24:11.826Z,99.10
2023-02-23T18:26:40.246Z,99.20
2023-02-23T18:29:07.828Z,99.20
2023-02-23T18:31:35.222Z,99.20
2023-02-23T18:34:02.540Z,99.20
2023-02-23T18:36:31.982Z,99.20
2023-02-23T18:39:00.844Z,99.30
2023-02-23T18:41:31.290Z,99.20
2023-02-23T18:44:04.342Z,99.20
2023-02-23T18:46:42.626Z,99.20
2023-02-23T18:49:16.982Z,99.20
2023-02-23T18:51:44.650Z,99.20
2023-02-23T18:54:17.065Z,99.20
2023-02-23T18:56:47.808Z,99.10
2023-02-23T18:59:16.902Z,99.10
2023-02-23T19:01:46.761Z,99.20
2023-02-23T19:04:14.239Z,99.20
2023-02-23T19:06:43.944Z,99.10
2023-02-23T19:09:14.478Z,99.20
2023-02-23T19:11:43.257Z,99.20
2023-02-23T19:14:16.179Z,99.20
2023-02-23T19:16:45.459Z,99.20
2023-02-23T19:19:13.324Z,99.20
2023-02-23T19:21:41.059Z,99.30
2023-02-23T19:24:08.393Z,99.40
2023-02-23T19:26:37.680Z,99.40
2023-02-23T19:29:05.075Z,99.40
2023-02-23T19:31:32.626Z,99.40
2023-02-23T19:34:05.153Z,99.50
2023-02-23T19:36:33.861Z,99.50
2023-02-23T19:39:10.911Z,99.60
2023-02-23T19:41:39.712Z,99.60
2023-02-23T19:44:07.174Z,99.70
2023-02-23T19:46:35.216Z,99.70
2023-02-23T19:49:02.905Z,99.70
2023-02-23T19:51:30.515Z,99.70
2023-02-23T19:53:58.929Z,99.80
2023-02-23T19:56:30.767Z,99.80
2023-02-23T19:58:59.987Z,99.80
2023-02-23T20:01:30.417Z,99.80
2023-02-23T20:04:02.396Z,99.80
2023-02-23T20:06:34.423Z,99.80
2023-02-23T20:09:05.893Z,99.90
2023-02-23T20:11:52.588Z,99.80
2023-02-23T20:15:56.240Z,99.80
2023-02-23T20:22:57.584Z,99.90
2023-02-23T20:25:35.895Z,99.90
2023-02-23T20:28:34.952Z,99.90
2023-02-23T20:31:11.085Z,99.90
2023-02-23T20:33:38.274Z,99.90
2023-02-23T20:36:15.298Z,99.90
2023-02-23T20:38:50.320Z,99.90
2023-02-23T20:41:17.889Z,99.90
2023-02-23T20:43:49.108Z,99.90
2023-02-23T20:46:40.774Z,99.90
2023-02-23T20:49:19.228Z,99.90
2023-02-23T20:55:32.570Z,99.90
2023-02-23T21:02:58.686Z,99.90
2023-02-23T21:05:28.931Z,99.90
2023-02-23T21:08:01.148Z,99.90
2023-02-23T21:10:51.731Z,99.90
2023-02-23T21:13:21.889Z,99.90
2023-02-23T21:20:20.952Z,99.90
2023-02-23T21:23:42.578Z,99.90
2023-02-23T21:29:33.064Z,99.90
2023-02-23T21:35:23.470Z,99.90
2023-02-23T21:37:51.471Z,99.90
2023-02-23T21:43:46.341Z,99.90
2023-02-23T21:46:17.324Z,99.90
2023-02-23T21:48:44.762Z,99.90
2023-02-23T21:51:18.648Z,99.90
2023-02-23T21:53:49.474Z,99.90
2023-02-23T21:56:24.457Z,99.90
2023-02-23T21:58:53.631Z,99.90
2023-02-23T22:01:29.528Z,99.90
2023-02-23T22:03:57.761Z,99.90
2023-02-23T22:06:31.294Z,99.90
2023-02-23T22:08:59.894Z,99.90
2023-02-23T22:11:31.075Z,99.90
2023-02-23T22:13:59.883Z,99.90
2023-02-23T22:16:33.432Z,99.90
2023-02-23T22:19:06.998Z,99.90
2023-02-23T22:21:40.852Z,99.90
2023-02-23T22:24:09.466Z,99.90
2023-02-23T22:26:42.048Z,99.90
2023-02-23T22:29:10.325Z,99.90
2023-02-23T22:31:38.589Z,99.90
2023-02-23T22:34:07.903Z,99.90
2023-02-23T22:36:35.034Z,99.90
2023-02-23T22:39:06.922Z,99.90
2023-02-23T22:41:42.366Z,99.90
2023-02-23T22:44:12.705Z,99.90
2023-02-23T22:46:41.362Z,99.90
2023-02-23T22:49:15.873Z,99.90
2023-02-23T22:51:43.777Z,99.90
2023-02-23T22:54:11.714Z,99.90
2023-02-23T22:56:39.750Z,99.90
2023-02-23T22:59:08.661Z,99.90
2023-02-23T23:01:38.755Z,99.90
2023-02-23T23:04:10.608Z,99.90
2023-02-23T23:06:40.239Z,99.90
2023-02-23T23:09:08.514Z,99.90
2023-02-23T23:11:41.749Z,99.90
2023-02-23T23:14:10.505Z,99.90
2023-02-23T23:16:48.460Z,99.90
2023-02-23T23:19:24.071Z,99.90
2023-02-23T23:21:55.278Z,99.90
2023-02-23T23:24:24.201Z,99.90
2023-02-23T23:29:46.666Z,99.90
2023-02-23T23:32:20.878Z,99.90
2023-02-23T23:34:49.265Z,99.90
2023-02-23T23:37:21.450Z,99.90
2023-02-23T23:40:00.250Z,99.90
2023-02-23T23:42:27.741Z,99.90
2023-02-23T23:44:57.001Z,99.90
2023-02-23T23:47:28.652Z,99.90
2023-02-23T23:49:56.084Z,99.90
2023-02-23T23:52:25.257Z,99.90
2023-02-23T23:54:54.577Z,99.90
2023-02-23T23:57:21.859Z,99.90
2023-02-23T23:59:49.184Z,99.90
